createdAt,value
2019-02-19T05:00:50.574Z,14.50
2019-02-19T05:03:13.110Z,14.10
2019-02-19T05:05:35.534Z,14.37
2019-02-19T05:07:57.976Z,15.30
2019-02-19T05:10:20.407Z,14.97
2019-02-19T05:12:42.932Z,14.57
2019-02-19T06:02:38.963Z,15.30
2019-02-19T06:05:06.360Z,15.40
2019-02-19T06:07:29.516Z,16.03
2019-02-19T06:10:04.460Z,15.40
2019-02-19T06:12:39.631Z,17.03
2019-02-19T07:02:59.104Z,14.27
2019-02-19T07:05:23.222Z,14.70
2019-02-19T07:07:45.647Z,14.90
2019-02-19T07:10:08.120Z,14.07
2019-02-19T07:12:30.627Z,14.30
2019-02-19T07:14:54.200Z,15.17
2019-02-19T07:17:17.215Z,16.20
2019-02-19T07:19:40.208Z,16.20
2019-02-19T07:22:03.378Z,15.50
2019-02-19T07:24:26.011Z,14.77
2019-02-19T07:26:48.760Z,15.27
2019-02-19T07:29:11.258Z,14.23
2019-02-19T07:31:33.695Z,15.27
2019-02-19T07:33:56.134Z,14.60
2019-02-19T07:36:18.570Z,14.73
2019-02-19T07:38:41.064Z,14.93
2019-02-19T07:41:03.509Z,14.47
2019-02-19T07:43:26.022Z,14.30
2019-02-19T07:45:48.462Z,14.97
2019-02-19T07:48:11.264Z,13.43
2019-02-19T07:50:33.723Z,14.30
2019-02-19T07:52:56.265Z,14.20
2019-02-19T07:55:18.682Z,14.37
2019-02-19T07:57:42.873Z,14.47
2019-02-19T08:00:06.074Z,13.10
2019-02-19T08:02:28.589Z,13.17
2019-02-19T08:04:51.120Z,14.17
2019-02-19T08:07:13.763Z,12.53
2019-02-19T08:09:36.178Z,12.87
2019-02-19T08:11:58.619Z,13.30
2019-02-19T08:14:21.133Z,13.43
2019-02-19T09:02:28.280Z,11.13
2019-02-19T09:04:50.824Z,11.03
2019-02-19T09:07:13.364Z,10.77
2019-02-19T09:09:35.875Z,10.93
2019-02-19T09:11:58.306Z,10.93
2019-02-19T09:14:20.743Z,10.90
2019-02-19T10:10:00.252Z,10.10
2019-02-19T10:12:34.900Z,9.37
2019-02-19T11:01:52.499Z,10.40
2019-02-19T11:04:15.242Z,11.37
2019-02-19T11:06:38.995Z,11.13
2019-02-19T11:09:27.759Z,10.57
2019-02-19T11:12:03.130Z,10.17
2019-02-19T11:14:38.260Z,9.77
2019-02-19T11:17:00.995Z,9.53
2019-02-19T11:19:54.970Z,9.30
2019-02-19T11:22:20.530Z,9.47
2019-02-19T11:25:02.660Z,9.60
2019-02-19T11:27:38.018Z,9.53
2019-02-19T11:30:13.037Z,8.80
2019-02-19T11:32:48.060Z,8.67
2019-02-19T11:35:23.186Z,9.03
2019-02-19T11:37:58.175Z,8.53
2019-02-19T11:40:33.351Z,8.67
2019-02-19T11:43:08.535Z,10.87
2019-02-19T11:45:43.559Z,9.83
2019-02-19T11:48:19.206Z,9.00
2019-02-19T11:50:54.760Z,8.77
2019-02-19T11:53:29.967Z,7.80
2019-02-19T11:56:05.072Z,8.20
2019-02-19T11:58:40.307Z,8.17
2019-02-19T12:01:15.706Z,7.97
2019-02-19T12:03:50.508Z,8.03
2019-02-19T12:06:25.813Z,7.43
2019-02-19T12:09:01.224Z,7.70
2019-02-19T12:11:38.299Z,7.70
2019-02-19T12:14:14.532Z,8.13
2019-02-19T13:00:47.290Z,5.80
2019-02-19T13:03:22.434Z,6.50
2019-02-19T13:05:57.958Z,6.60
2019-02-19T13:08:32.830Z,6.57
2019-02-19T13:11:07.805Z,6.93
2019-02-19T13:13:42.855Z,6.30
2019-02-19T14:02:02.603Z,7.13
2019-02-19T14:04:25.180Z,6.83
2019-02-19T14:06:47.775Z,7.47
2019-02-19T14:09:10.338Z,6.93
2019-02-19T14:11:55.309Z,6.87
2019-02-19T14:14:56.781Z,7.50
2019-02-19T14:37:57.147Z,7.90
2019-02-19T14:40:39.458Z,7.30
2019-02-19T14:43:37.060Z,7.97
2019-02-19T14:46:11.993Z,7.77
2019-02-19T14:48:44.568Z,8.30
2019-02-19T14:51:24.937Z,8.47
2019-02-19T14:57:10.022Z,8.03
2019-02-19T15:03:19.690Z,8.37
2019-02-19T15:12:11.795Z,8.50
2019-02-19T15:14:53.789Z,8.60
2019-02-19T16:01:07.807Z,10.00
2019-02-19T16:03:35.869Z,9.30
2019-02-19T16:06:05.071Z,10.40
2019-02-19T16:08:35.822Z,9.97
2019-02-19T16:11:17.104Z,11.10
2019-02-19T16:14:16.720Z,10.53
2019-02-19T16:34:50.432Z,12.83
2019-02-19T16:55:33.382Z,11.80
2019-02-19T16:58:14.154Z,12.17
2019-02-19T17:00:51.336Z,13.17
2019-02-19T17:03:35.153Z,12.00
2019-02-19T17:06:36.761Z,12.77
2019-02-19T17:09:17.253Z,13.77
2019-02-19T17:11:49.346Z,13.30
2019-02-19T17:14:50.724Z,12.50
2019-02-19T18:01:23.394Z,13.73
2019-02-19T18:04:18.353Z,12.40
2019-02-19T18:07:11.191Z,13.27
2019-02-19T18:09:56.915Z,13.20
2019-02-19T18:12:51.674Z,15.20
2019-02-19T19:02:46.366Z,13.07
2019-02-19T19:05:21.555Z,15.40
2019-02-19T19:07:56.647Z,16.37
2019-02-19T19:10:31.411Z,16.50
2019-02-19T19:13:06.734Z,15.07
2019-02-19T20:02:46.431Z,20.30
2019-02-19T20:05:21.460Z,19.03
2019-02-19T20:07:56.619Z,18.73
2019-02-19T20:10:32.544Z,16.97
2019-02-19T20:13:07.795Z,18.17
2019-02-19T21:01:11.883Z,18.47
2019-02-19T21:03:46.956Z,17.83
2019-02-19T21:06:22.231Z,17.80
2019-02-19T21:08:57.160Z,18.60
2019-02-19T21:11:32.252Z,19.10
2019-02-19T21:14:07.118Z,18.90
